createdAt,value
2024-05-09T00:00:50.559Z,99.90
2024-05-09T00:03:21.154Z,99.90
2024-05-09T00:05:51.075Z,99.90
2024-05-09T00:08:24.042Z,99.90
2024-05-09T00:10:53.986Z,99.90
2024-05-09T00:13:23.761Z,99.90
2024-05-09T00:15:53.579Z,99.90
2024-05-09T00:18:23.663Z,99.90
2024-05-09T00:20:53.578Z,99.90
2024-05-09T00:23:26.050Z,99.90
2024-05-09T00:25:55.977Z,99.90
2024-05-09T00:28:25.911Z,99.90
2024-05-09T00:30:56.032Z,99.90
2024-05-09T00:33:26.089Z,99.90
2024-05-09T00:35:56.064Z,99.90
2024-05-09T00:38:28.570Z,99.90
2024-05-09T00:40:58.379Z,99.90
2024-05-09T00:43:28.177Z,99.90
2024-05-09T00:45:58.458Z,99.90
2024-05-09T00:48:29.462Z,99.90
2024-05-09T00:51:00.562Z,99.90
2024-05-09T00:53:33.846Z,99.90
2024-05-09T00:56:04.372Z,99.90
2024-05-09T00:58:34.499Z,99.90
2024-05-09T01:01:05.559Z,99.90
2024-05-09T01:03:35.760Z,99.90
2024-05-09T01:06:05.679Z,99.90
2024-05-09T01:08:38.308Z,99.90
2024-05-09T01:11:08.349Z,99.90
2024-05-09T01:13:38.218Z,99.90
2024-05-09T01:16:08.842Z,99.90
2024-05-09T01:18:38.718Z,99.90
2024-05-09T01:21:10.126Z,99.90
2024-05-09T01:23:42.717Z,99.90
2024-05-09T01:26:12.714Z,99.90
2024-05-09T01:28:42.563Z,99.90
2024-05-09T01:31:15.806Z,99.90
2024-05-09T01:33:46.243Z,99.90
2024-05-09T01:36:16.224Z,99.90
2024-05-09T01:38:48.628Z,99.90
2024-05-09T01:41:18.498Z,99.90
2024-05-09T01:43:48.377Z,99.90
2024-05-09T01:46:19.447Z,99.90
2024-05-09T01:48:49.822Z,99.90
2024-05-09T01:51:19.743Z,99.90
2024-05-09T01:53:52.304Z,99.90
2024-05-09T01:56:22.135Z,99.90
2024-05-09T01:58:51.980Z,99.90
2024-05-09T02:01:21.828Z,99.90
2024-05-09T02:03:51.882Z,99.90
2024-05-09T02:06:21.868Z,99.90
2024-05-09T02:08:54.291Z,99.90
2024-05-09T02:11:24.238Z,99.90
2024-05-09T02:13:54.088Z,99.90
2024-05-09T02:16:23.915Z,99.90
2024-05-09T02:18:53.811Z,99.90
2024-05-09T02:21:23.739Z,99.90
2024-05-09T02:23:56.133Z,99.90
2024-05-09T02:26:26.014Z,99.90
2024-05-09T02:28:55.882Z,99.90
2024-05-09T02:31:25.622Z,99.90
2024-05-09T02:33:55.696Z,99.90
2024-05-09T02:36:22.977Z,99.90
2024-05-09T02:38:55.382Z,99.90
2024-05-09T02:41:22.614Z,99.90
2024-05-09T02:43:52.488Z,99.90
2024-05-09T02:46:19.687Z,99.90
2024-05-09T02:48:49.609Z,99.90
2024-05-09T02:51:16.905Z,99.90
2024-05-09T02:53:46.768Z,99.90
2024-05-09T02:56:16.605Z,99.90
2024-05-09T02:58:46.461Z,99.90
2024-05-09T03:01:16.776Z,99.90
2024-05-09T03:03:48.520Z,99.90
2024-05-09T03:06:15.790Z,99.90
2024-05-09T03:08:47.768Z,99.90
2024-05-09T03:11:25.274Z,99.90
2024-05-09T03:13:56.072Z,99.90
2024-05-09T03:16:23.258Z,99.90
2024-05-09T03:18:54.636Z,99.90
2024-05-09T03:21:22.053Z,99.90
2024-05-09T03:23:51.887Z,99.90
2024-05-09T03:26:19.442Z,99.90
2024-05-09T03:28:51.983Z,99.90
2024-05-09T03:31:19.222Z,99.90
2024-05-09T03:33:49.325Z,99.90
2024-05-09T03:36:16.901Z,99.90
2024-05-09T03:38:46.747Z,99.90
2024-05-09T03:41:16.579Z,99.90
2024-05-09T03:43:47.098Z,99.90
2024-05-09T03:46:17.038Z,99.90
2024-05-09T03:48:46.931Z,99.90
2024-05-09T03:51:14.591Z,99.90
2024-05-09T03:53:44.401Z,99.90
2024-05-09T03:56:11.644Z,99.90
2024-05-09T03:58:42.112Z,99.90
2024-05-09T04:01:09.293Z,99.90
2024-05-09T04:03:41.928Z,99.90
2024-05-09T04:06:09.210Z,99.90
2024-05-09T04:08:39.046Z,99.90
2024-05-09T04:11:07.256Z,99.90
2024-05-09T04:13:37.048Z,99.90
2024-05-09T04:16:04.587Z,99.90
2024-05-09T04:18:34.463Z,99.90
2024-05-09T04:21:05.280Z,99.90
2024-05-09T04:23:35.272Z,99.90
2024-05-09T04:26:04.375Z,99.90
2024-05-09T04:28:34.250Z,99.90
2024-05-09T04:31:01.469Z,99.90
2024-05-09T04:33:34.759Z,99.90
2024-05-09T04:36:05.329Z,99.90
2024-05-09T04:38:35.225Z,99.90
2024-05-09T04:41:02.511Z,99.90
2024-05-09T04:43:33.298Z,99.90
2024-05-09T04:46:00.480Z,99.90
2024-05-09T04:48:30.799Z,99.90
2024-05-09T04:50:58.077Z,99.90
2024-05-09T04:53:30.503Z,99.90
2024-05-09T04:55:57.808Z,99.90
2024-05-09T04:58:27.616Z,99.90
2024-05-09T05:00:54.839Z,99.90
2024-05-09T05:03:24.942Z,99.90
2024-05-09T05:05:52.365Z,99.90
2024-05-09T05:08:22.238Z,99.90
2024-05-09T05:10:52.178Z,99.90
2024-05-09T05:13:24.073Z,99.90
2024-05-09T05:15:55.212Z,99.90
2024-05-09T05:18:25.809Z,99.90
2024-05-09T05:20:53.194Z,99.90
2024-05-09T05:23:24.601Z,99.90
2024-05-09T05:25:56.826Z,99.90
2024-05-09T05:28:26.687Z,99.90
2024-05-09T05:30:53.990Z,99.90
2024-05-09T05:33:24.564Z,99.90
2024-05-09T05:35:51.837Z,99.90
2024-05-09T05:38:24.783Z,99.90
2024-05-09T05:40:57.128Z,99.90
2024-05-09T05:43:26.953Z,99.90
2024-05-09T05:45:54.114Z,99.90
2024-05-09T05:48:24.019Z,99.90
2024-05-09T05:50:51.507Z,99.90
2024-05-09T05:53:21.738Z,99.90
2024-05-09T05:55:48.911Z,99.90
2024-05-09T05:58:22.490Z,99.90
2024-05-09T06:00:50.557Z,99.90
2024-05-09T06:03:20.345Z,99.90
2024-05-09T06:05:47.569Z,99.90
2024-05-09T06:08:17.475Z,99.90
2024-05-09T06:10:45.089Z,99.90
2024-05-09T06:13:15.844Z,99.90
2024-05-09T06:15:45.765Z,99.90
2024-05-09T06:18:17.255Z,99.90
2024-05-09T06:20:44.697Z,99.90
2024-05-09T06:23:15.180Z,99.90
2024-05-09T06:25:43.826Z,99.90
2024-05-09T06:28:13.950Z,99.90
2024-05-09T06:30:42.676Z,99.90
2024-05-09T06:33:16.748Z,99.90
2024-05-09T06:35:45.043Z,99.90
2024-05-09T06:38:15.106Z,99.90
2024-05-09T06:40:43.941Z,99.90
2024-05-09T06:43:16.895Z,99.90
2024-05-09T06:45:47.739Z,99.90
2024-05-09T06:48:22.065Z,99.90
2024-05-09T06:50:50.402Z,99.90
2024-05-09T06:53:24.489Z,99.90
2024-05-09T06:55:51.915Z,99.90
2024-05-09T06:58:21.725Z,99.90
2024-05-09T07:00:49.019Z,99.90
2024-05-09T07:03:21.620Z,99.90
2024-05-09T07:05:49.758Z,99.90
2024-05-09T07:08:20.111Z,99.90
2024-05-09T07:10:47.514Z,99.90
2024-05-09T07:13:17.845Z,99.90
2024-05-09T07:15:45.083Z,99.90
2024-05-09T07:18:20.027Z,99.90
2024-05-09T07:20:50.953Z,99.90
2024-05-09T07:23:21.149Z,99.90
2024-05-09T07:25:48.618Z,99.90
2024-05-09T07:28:20.003Z,99.90
2024-05-09T07:30:47.554Z,99.90
2024-05-09T07:33:22.392Z,99.90
2024-05-09T07:35:53.646Z,99.90
2024-05-09T07:38:24.078Z,99.90
2024-05-09T07:40:51.366Z,99.90
2024-05-09T07:43:21.230Z,99.90
2024-05-09T07:45:53.346Z,99.90
2024-05-09T07:53:40.479Z,99.90
2024-05-09T07:56:12.537Z,99.90
2024-05-09T07:58:42.604Z,99.90
2024-05-09T08:01:09.924Z,99.90
2024-05-09T08:03:40.746Z,99.90
2024-05-09T08:06:10.700Z,99.90
2024-05-09T08:08:40.501Z,99.90
2024-05-09T08:11:07.813Z,99.90
2024-05-09T08:13:37.631Z,99.90
2024-05-09T08:16:05.642Z,99.90
2024-05-09T08:18:35.939Z,99.90
2024-05-09T08:21:03.261Z,99.90
2024-05-09T08:23:36.243Z,99.90
2024-05-09T08:26:03.527Z,99.90
2024-05-09T08:28:33.425Z,99.90
2024-05-09T08:31:03.129Z,99.90
2024-05-09T08:33:35.403Z,99.90
2024-05-09T08:36:03.011Z,99.90
2024-05-09T08:38:35.620Z,99.90
2024-05-09T08:41:04.136Z,99.90
2024-05-09T08:43:33.944Z,99.90
2024-05-09T08:46:04.261Z,99.90
2024-05-09T08:48:39.302Z,99.90
2024-05-09T08:51:06.958Z,99.90
2024-05-09T08:53:39.393Z,99.90
2024-05-09T08:56:08.922Z,99.90
2024-05-09T08:58:40.062Z,99.90
2024-05-09T09:01:07.962Z,99.90
2024-05-09T09:03:40.185Z,99.90
2024-05-09T09:06:11.601Z,99.90
2024-05-09T09:08:44.166Z,99.90
2024-05-09T09:11:11.421Z,99.90
2024-05-09T09:13:41.305Z,99.90
2024-05-09T09:16:08.858Z,99.90
2024-05-09T09:18:39.031Z,99.90
2024-05-09T09:21:10.588Z,99.90
2024-05-09T09:23:43.256Z,99.90
2024-05-09T09:26:15.917Z,99.90
2024-05-09T09:28:46.160Z,99.40
2024-05-09T09:31:16.694Z,99.00
2024-05-09T09:33:46.735Z,96.50
2024-05-09T09:36:14.411Z,96.20
2024-05-09T09:38:48.810Z,95.80
2024-05-09T09:41:17.874Z,96.40
2024-05-09T09:43:47.969Z,96.60
2024-05-09T09:46:16.173Z,95.10
2024-05-09T09:48:47.148Z,93.80
2024-05-09T09:51:15.745Z,93.30
2024-05-09T09:53:50.115Z,92.00
2024-05-09T09:56:18.562Z,91.30
2024-05-09T09:58:49.326Z,92.30
2024-05-09T10:01:16.670Z,91.80
2024-05-09T10:03:47.702Z,90.40
2024-05-09T10:06:16.217Z,90.40
2024-05-09T10:08:49.687Z,89.10
2024-05-09T10:11:20.280Z,85.80
2024-05-09T10:13:50.335Z,84.10
2024-05-09T10:16:21.375Z,78.20
2024-05-09T10:18:51.567Z,81.70
2024-05-09T10:21:20.186Z,82.20
2024-05-09T10:24:03.348Z,82.90
2024-05-09T10:26:32.228Z,77.70
2024-05-09T10:29:03.308Z,80.10
2024-05-09T10:31:30.536Z,82.20
2024-05-09T10:34:02.999Z,79.70
2024-05-09T10:36:30.572Z,81.30
2024-05-09T10:39:03.039Z,77.70
2024-05-09T10:41:30.178Z,76.40
2024-05-09T10:43:59.991Z,73.70
2024-05-09T10:46:27.266Z,72.50
2024-05-09T10:48:57.214Z,70.90
2024-05-09T10:51:25.041Z,76.40
2024-05-09T10:53:56.686Z,79.40
2024-05-09T10:56:26.775Z,74.30
2024-05-09T10:58:57.325Z,70.30
2024-05-09T11:01:24.677Z,67.30
2024-05-09T11:03:55.210Z,66.50
2024-05-09T11:06:23.337Z,65.40
2024-05-09T11:08:54.059Z,66.80
2024-05-09T11:11:21.373Z,64.90
2024-05-09T11:13:53.763Z,65.20
2024-05-09T11:16:21.791Z,66.60
2024-05-09T11:18:59.536Z,62.10
2024-05-09T11:21:27.075Z,64.20
2024-05-09T11:23:57.223Z,64.50
2024-05-09T11:26:25.434Z,61.80
2024-05-09T11:28:58.056Z,64.90
2024-05-09T11:31:25.621Z,64.80
2024-05-09T11:33:57.272Z,64.60
2024-05-09T11:36:24.620Z,62.30
2024-05-09T11:38:54.496Z,60.00
2024-05-09T11:41:21.757Z,60.00
2024-05-09T11:43:51.535Z,62.20
2024-05-09T11:46:21.619Z,61.70
2024-05-09T11:48:51.685Z,59.40
2024-05-09T11:51:19.163Z,61.30
2024-05-09T11:53:48.963Z,63.10
2024-05-09T11:56:17.397Z,59.90
2024-05-09T11:58:47.206Z,61.40
2024-05-09T12:01:14.514Z,62.00
2024-05-09T12:03:48.658Z,64.60
2024-05-09T12:06:16.026Z,68.60
2024-05-09T12:08:46.066Z,66.60
2024-05-09T12:11:13.887Z,69.40
2024-05-09T12:13:43.771Z,68.60
2024-05-09T12:16:11.081Z,68.00
2024-05-09T12:18:40.981Z,68.90
2024-05-09T12:21:10.848Z,66.30
2024-05-09T12:23:40.624Z,65.70
2024-05-09T12:26:08.002Z,69.90
2024-05-09T12:28:37.841Z,67.90
2024-05-09T12:31:05.311Z,64.40
2024-05-09T12:33:35.293Z,65.30
2024-05-09T12:36:02.641Z,66.40
2024-05-09T12:38:35.159Z,72.20
2024-05-09T12:41:02.391Z,68.70
2024-05-09T12:43:32.287Z,70.40
2024-05-09T12:45:59.541Z,72.30
2024-05-09T12:48:29.460Z,73.00
2024-05-09T12:50:57.643Z,69.20
2024-05-09T12:53:27.559Z,72.50
2024-05-09T12:56:01.839Z,67.60
2024-05-09T12:58:33.769Z,70.10
2024-05-09T13:01:01.059Z,64.10
2024-05-09T13:03:31.204Z,64.40
2024-05-09T13:05:58.877Z,61.70
2024-05-09T13:08:28.778Z,63.20
2024-05-09T13:10:58.893Z,62.50
2024-05-09T13:13:29.334Z,63.40
2024-05-09T13:15:56.504Z,64.90
2024-05-09T13:18:26.500Z,66.40
2024-05-09T13:20:53.746Z,63.00
2024-05-09T13:23:23.544Z,66.00
2024-05-09T13:25:50.791Z,63.10
2024-05-09T13:28:23.363Z,60.10
2024-05-09T13:30:50.700Z,60.20
2024-05-09T13:33:20.809Z,60.40
2024-05-09T13:35:50.565Z,59.30
2024-05-09T13:38:21.844Z,62.70
2024-05-09T13:40:50.410Z,61.50
2024-05-09T13:43:23.991Z,64.10
2024-05-09T13:45:51.971Z,68.00
2024-05-09T13:48:21.913Z,63.30
2024-05-09T13:50:49.172Z,64.70
2024-05-09T13:53:19.392Z,66.80
2024-05-09T13:55:46.726Z,65.90
2024-05-09T13:58:16.735Z,66.80
2024-05-09T14:00:48.965Z,67.10
2024-05-09T14:03:21.070Z,65.80
2024-05-09T14:05:50.224Z,66.80
2024-05-09T14:08:22.333Z,63.00
2024-05-09T14:10:50.466Z,65.30
2024-05-09T14:13:20.627Z,66.80
2024-05-09T14:15:50.880Z,67.10
2024-05-09T14:18:21.188Z,69.40
2024-05-09T14:20:48.461Z,70.00
2024-05-09T14:23:20.616Z,69.40
2024-05-09T14:25:51.826Z,70.30
2024-05-09T14:28:22.745Z,68.40
2024-05-09T14:30:53.267Z,68.40
2024-05-09T14:33:26.680Z,70.80
2024-05-09T14:35:54.423Z,72.80
2024-05-09T14:38:24.321Z,71.70
2024-05-09T14:40:51.632Z,70.60
2024-05-09T14:43:21.771Z,70.50
2024-05-09T14:45:49.012Z,71.10
2024-05-09T14:48:22.326Z,67.20
2024-05-09T14:50:49.586Z,69.10
2024-05-09T14:53:19.403Z,68.20
2024-05-09T14:55:46.718Z,71.40
2024-05-09T14:58:16.837Z,69.80
2024-05-09T15:00:50.129Z,72.30
2024-05-09T15:03:23.864Z,70.80
2024-05-09T15:05:51.715Z,67.80
2024-05-09T15:08:22.078Z,68.60
2024-05-09T15:10:50.435Z,68.20
2024-05-09T15:13:20.992Z,68.50
2024-05-09T15:15:48.790Z,70.70
2024-05-09T15:18:19.487Z,70.10
2024-05-09T15:20:49.605Z,69.00
2024-05-09T15:23:19.830Z,70.30
2024-05-09T15:25:47.160Z,67.40
2024-05-09T15:28:17.168Z,67.60
2024-05-09T15:30:46.539Z,69.10
2024-05-09T15:33:17.315Z,67.50
2024-05-09T15:35:46.673Z,68.10
2024-05-09T15:38:19.885Z,66.20
2024-05-09T15:40:47.284Z,65.50
2024-05-09T15:43:17.415Z,64.50
2024-05-09T15:45:44.952Z,65.20
2024-05-09T15:48:15.015Z,63.90
2024-05-09T15:50:43.055Z,63.80
2024-05-09T15:53:13.893Z,66.90
2024-05-09T15:55:43.887Z,65.70
2024-05-09T15:58:14.231Z,62.70
2024-05-09T16:00:44.792Z,64.10
2024-05-09T16:03:16.282Z,65.40
2024-05-09T16:05:44.825Z,65.80
2024-05-09T16:08:15.487Z,63.60
2024-05-09T16:10:47.443Z,64.90
2024-05-09T16:13:19.619Z,65.10
2024-05-09T16:15:47.242Z,65.40
2024-05-09T16:18:17.267Z,65.00
2024-05-09T16:20:46.443Z,65.70
2024-05-09T16:23:18.297Z,69.00
2024-05-09T16:25:48.710Z,68.20
2024-05-09T16:28:19.319Z,70.70
2024-05-09T16:30:46.975Z,71.70
2024-05-09T16:33:19.455Z,66.90
2024-05-09T16:35:46.978Z,66.10
2024-05-09T16:38:16.738Z,67.90
2024-05-09T16:40:44.151Z,68.70
2024-05-09T16:43:16.927Z,67.90
2024-05-09T16:45:44.735Z,70.10
2024-05-09T16:48:16.839Z,70.10
2024-05-09T16:50:44.121Z,71.10
2024-05-09T16:53:14.133Z,71.40
2024-05-09T16:55:41.487Z,70.20
2024-05-09T16:58:12.360Z,69.30
2024-05-09T17:00:43.901Z,70.60
2024-05-09T17:03:16.636Z,73.80
2024-05-09T17:05:46.419Z,72.50
2024-05-09T17:08:19.777Z,72.90
2024-05-09T17:10:48.664Z,73.00
2024-05-09T17:13:19.790Z,71.20
2024-05-09T17:15:52.654Z,73.10
2024-05-09T17:18:23.034Z,74.00
2024-05-09T17:20:52.385Z,73.90
2024-05-09T17:23:22.198Z,76.30
2024-05-09T17:25:49.421Z,79.60
2024-05-09T17:28:19.601Z,81.00
2024-05-09T17:30:49.659Z,81.50
2024-05-09T17:33:19.747Z,85.00
2024-05-09T17:35:50.365Z,87.30
2024-05-09T17:38:22.858Z,90.50
2024-05-09T17:40:50.541Z,92.80
2024-05-09T17:43:20.633Z,94.60
2024-05-09T17:45:50.553Z,94.70
2024-05-09T17:48:20.605Z,95.90
2024-05-09T17:50:48.003Z,96.10
2024-05-09T17:53:17.742Z,95.80
2024-05-09T17:55:45.009Z,95.50
2024-05-09T17:58:15.796Z,96.30
2024-05-09T18:00:43.172Z,96.40
2024-05-09T18:03:15.617Z,97.10
2024-05-09T18:05:44.268Z,97.10
2024-05-09T18:08:14.830Z,97.80
2024-05-09T18:10:42.507Z,97.80
2024-05-09T18:13:13.154Z,97.90
2024-05-09T18:15:41.178Z,98.10
2024-05-09T18:18:11.717Z,98.80
2024-05-09T18:20:45.263Z,99.10
2024-05-09T18:23:17.928Z,99.80
2024-05-09T18:25:46.740Z,99.90
2024-05-09T18:28:17.680Z,99.90
2024-05-09T18:30:45.230Z,99.90
2024-05-09T18:33:15.695Z,99.90
2024-05-09T18:35:45.874Z,99.90
2024-05-09T18:38:15.940Z,99.90
2024-05-09T18:40:45.929Z,99.90
2024-05-09T18:43:19.019Z,99.90
2024-05-09T18:45:49.293Z,99.90
2024-05-09T18:48:19.332Z,99.90
2024-05-09T18:50:49.399Z,99.90
2024-05-09T18:53:19.295Z,99.90
2024-05-09T18:55:46.476Z,99.90
2024-05-09T18:58:17.189Z,99.90
2024-05-09T19:00:47.177Z,99.90
2024-05-09T19:03:19.707Z,99.90
2024-05-09T19:05:50.046Z,99.90
2024-05-09T19:08:19.922Z,99.90
2024-05-09T19:10:47.215Z,99.90
2024-05-09T19:13:17.198Z,99.90
2024-05-09T19:15:44.814Z,99.90
2024-05-09T19:18:15.595Z,99.90
2024-05-09T19:20:43.481Z,99.90
2024-05-09T19:23:16.034Z,99.90
2024-05-09T19:25:43.222Z,99.90
2024-05-09T19:28:13.094Z,99.90
2024-05-09T19:30:42.372Z,99.90
2024-05-09T19:33:14.611Z,99.90
2024-05-09T19:35:42.723Z,99.90
2024-05-09T19:38:15.544Z,99.90
2024-05-09T19:40:42.930Z,99.90
2024-05-09T19:43:13.385Z,99.90
2024-05-09T19:45:40.705Z,99.90
2024-05-09T19:48:11.228Z,99.90
2024-05-09T19:50:43.132Z,99.90
2024-05-09T19:53:17.524Z,99.90
2024-05-09T19:55:44.729Z,99.90
2024-05-09T19:58:14.683Z,99.90
2024-05-09T20:00:43.651Z,99.90
2024-05-09T20:03:15.738Z,99.90
2024-05-09T20:05:45.917Z,99.90
2024-05-09T20:08:19.743Z,99.90
2024-05-09T20:10:47.094Z,99.90
2024-05-09T20:13:17.164Z,99.90
2024-05-09T20:15:44.542Z,99.90
2024-05-09T20:18:14.692Z,99.90
2024-05-09T20:20:44.067Z,99.90
2024-05-09T20:23:18.047Z,99.90
2024-05-09T20:25:45.325Z,99.90
2024-05-09T20:28:15.207Z,99.90
2024-05-09T20:30:42.407Z,99.90
2024-05-09T20:33:14.108Z,99.90
2024-05-09T20:35:41.455Z,99.90
2024-05-09T20:38:11.196Z,99.90
2024-05-09T20:40:41.035Z,99.90
2024-05-09T20:43:11.808Z,99.90
2024-05-09T20:45:40.102Z,99.90
2024-05-09T20:48:11.696Z,99.90
2024-05-09T20:50:41.617Z,99.90
2024-05-09T20:53:14.599Z,99.90
2024-05-09T20:55:45.544Z,99.90
2024-05-09T20:58:15.708Z,99.90
2024-05-09T21:00:45.596Z,99.90
2024-05-09T21:03:17.770Z,99.90
2024-05-09T21:05:45.916Z,99.90
2024-05-09T21:08:16.166Z,99.90
2024-05-09T21:10:46.082Z,99.90
2024-05-09T21:13:16.056Z,99.90
2024-05-09T21:15:43.434Z,99.90
2024-05-09T21:18:13.691Z,99.90
2024-05-09T21:20:40.956Z,99.90
2024-05-09T21:23:11.062Z,99.90
2024-05-09T21:25:38.346Z,99.90
2024-05-09T21:28:10.984Z,99.90
2024-05-09T21:30:42.052Z,99.90
2024-05-09T21:33:14.781Z,99.90
2024-05-09T21:35:42.993Z,99.90
2024-05-09T21:38:13.677Z,99.90
2024-05-09T21:40:41.208Z,99.90
2024-05-09T21:43:14.288Z,99.90
2024-05-09T21:45:41.889Z,99.90
2024-05-09T21:48:11.850Z,99.90
2024-05-09T21:50:41.558Z,99.90
2024-05-09T21:53:13.205Z,99.90
2024-05-09T21:55:41.158Z,99.90
2024-05-09T21:58:14.940Z,99.90
2024-05-09T22:00:45.670Z,99.90
2024-05-09T22:03:16.313Z,99.90
2024-05-09T22:05:45.019Z,99.90
2024-05-09T22:08:15.297Z,99.90
2024-05-09T22:10:42.726Z,99.90
2024-05-09T22:13:16.833Z,99.90
2024-05-09T22:15:44.294Z,99.90
2024-05-09T22:18:14.273Z,99.90
2024-05-09T22:20:45.225Z,99.90
2024-05-09T22:23:16.378Z,99.90
2024-05-09T22:25:43.684Z,99.90
2024-05-09T22:28:17.403Z,99.90
2024-05-09T22:30:46.236Z,99.90
2024-05-09T22:33:17.578Z,99.90
2024-05-09T22:35:45.229Z,99.90
2024-05-09T22:38:15.187Z,99.90
2024-05-09T22:40:47.903Z,99.90
2024-05-09T22:43:24.732Z,99.90
2024-05-09T22:45:55.709Z,99.90
2024-05-09T22:48:24.279Z,99.90
2024-05-09T22:50:54.932Z,99.90
2024-05-09T22:53:22.879Z,99.90
2024-05-09T22:55:52.703Z,99.90
2024-05-09T22:58:23.316Z,99.90
2024-05-09T23:00:53.594Z,99.90
2024-05-09T23:03:22.637Z,99.90
2024-05-09T23:05:52.839Z,99.90
2024-05-09T23:08:20.128Z,99.90
2024-05-09T23:10:49.991Z,99.90
2024-05-09T23:13:17.372Z,99.90
2024-05-09T23:15:49.793Z,99.90
2024-05-09T23:18:17.087Z,99.90
2024-05-09T23:20:46.933Z,99.90
2024-05-09T23:23:14.171Z,99.90
2024-05-09T23:25:46.001Z,99.90
2024-05-09T23:28:13.410Z,99.90
2024-05-09T23:30:43.418Z,99.90
2024-05-09T23:33:14.249Z,99.90
2024-05-09T23:35:45.245Z,99.90
2024-05-09T23:38:12.585Z,99.90
2024-05-09T23:40:43.302Z,99.90
2024-05-09T23:43:12.293Z,99.90
2024-05-09T23:45:43.132Z,99.90
2024-05-09T23:48:13.278Z,99.90
2024-05-09T23:50:43.410Z,99.90
2024-05-09T23:53:11.225Z,99.90
2024-05-09T23:55:41.725Z,99.90
2024-05-09T23:58:09.492Z,99.90
